sensor_id;sensor_type;location;lat;lon;timestamp;temperature;humidity
33645;DHT22;19986;48.190;16.366;2023-05-18T00:00:09;13.20;99.90
33645;DHT22;19986;48.190;16.366;2023-05-18T00:02:39;13.20;99.90
33645;DHT22;19986;48.190;16.366;2023-05-18T00:05:06;13.20;99.90
33645;DHT22;19986;48.190;16.366;2023-05-18T00:07:33;13.20;99.90
33645;DHT22;19986;48.190;16.366;2023-05-18T00:10:02;13.20;99.90
33645;DHT22;19986;48.190;16.366;2023-05-18T00:12:28;13.20;99.90
33645;DHT22;19986;48.190;16.366;2023-05-18T00:14:53;13.20;99.90
33645;DHT22;19986;48.190;16.366;2023-05-18T00:17:19;13.20;99.90
33645;DHT22;19986;48.190;16.366;2023-05-18T00:19:46;13.20;99.90
33645;DHT22;19986;48.190;16.366;2023-05-18T00:22:12;13.20;99.90
33645;DHT22;19986;48.190;16.366;2023-05-18T00:24:47;13.20;99.90
33645;DHT22;19986;48.190;16.366;2023-05-18T00:27:14;13.20;99.90
33645;DHT22;19986;48.190;16.366;2023-05-18T00:29:40;13.10;99.90
33645;DHT22;19986;48.190;16.366;2023-05-18T00:32:05;13.20;99.90
33645;DHT22;19986;48.190;16.366;2023-05-18T00:34:34;13.20;99.90
33645;DHT22;19986;48.190;16.366;2023-05-18T00:37:00;13.10;99.90
33645;DHT22;19986;48.190;16.366;2023-05-18T00:39:26;13.10;99.90
33645;DHT22;19986;48.190;16.366;2023-05-18T00:41:52;13.10;99.90
33645;DHT22;19986;48.190;16.366;2023-05-18T00:44:18;13.10;99.90
33645;DHT22;19986;48.190;16.366;2023-05-18T00:46:44;13.10;99.90
33645;DHT22;19986;48.190;16.366;2023-05-18T00:49:10;13.10;99.90
33645;DHT22;19986;48.190;16.366;2023-05-18T00:51:36;13.10;99.90
33645;DHT22;19986;48.190;16.366;2023-05-18T00:54:04;13.20;99.90
33645;DHT22;19986;48.190;16.366;2023-05-18T00:56:30;13.20;99.90
33645;DHT22;19986;48.190;16.366;2023-05-18T00:59:01;13.20;99.90
33645;DHT22;19986;48.190;16.366;2023-05-18T01:01:29;13.20;99.90
33645;DHT22;19986;48.190;16.366;2023-05-18T01:03:56;13.20;99.90
33645;DHT22;19986;48.190;16.366;2023-05-18T01:06:22;13.20;99.90
33645;DHT22;19986;48.190;16.366;2023-05-18T01:08:52;13.20;99.90
33645;DHT22;19986;48.190;16.366;2023-05-18T01:14:36;13.10;99.90
33645;DHT22;19986;48.190;16.366;2023-05-18T01:28:27;13.10;99.90
33645;DHT22;19986;48.190;16.366;2023-05-18T01:30:54;13.20;99.90
33645;DHT22;19986;48.190;16.366;2023-05-18T01:33:21;13.20;99.90
33645;DHT22;19986;48.190;16.366;2023-05-18T01:35:46;13.20;99.90
33645;DHT22;19986;48.190;16.366;2023-05-18T01:38:18;13.20;99.90
33645;DHT22;19986;48.190;16.366;2023-05-18T01:41:23;13.20;99.90
33645;DHT22;19986;48.190;16.366;2023-05-18T01:44:11;13.20;99.90
33645;DHT22;19986;48.190;16.366;2023-05-18T01:46:59;13.20;99.90
33645;DHT22;19986;48.190;16.366;2023-05-18T01:49:32;13.20;99.90
33645;DHT22;19986;48.190;16.366;2023-05-18T01:52:03;13.20;99.90
33645;DHT22;19986;48.190;16.366;2023-05-18T01:54:31;13.20;99.90
33645;DHT22;19986;48.190;16.366;2023-05-18T01:56:59;13.10;99.90
33645;DHT22;19986;48.190;16.366;2023-05-18T01:59:26;13.10;99.90
33645;DHT22;19986;48.190;16.366;2023-05-18T02:01:58;13.10;99.90
33645;DHT22;19986;48.190;16.366;2023-05-18T02:04:23;13.20;99.90
33645;DHT22;19986;48.190;16.366;2023-05-18T02:06:50;13.20;99.90
33645;DHT22;19986;48.190;16.366;2023-05-18T02:09:20;13.20;99.90
33645;DHT22;19986;48.190;16.366;2023-05-18T02:11:47;13.10;99.90
33645;DHT22;19986;48.190;16.366;2023-05-18T02:14:14;13.20;99.90
33645;DHT22;19986;48.190;16.366;2023-05-18T02:16:40;13.20;99.90
33645;DHT22;19986;48.190;16.366;2023-05-18T02:19:06;13.10;99.90
33645;DHT22;19986;48.190;16.366;2023-05-18T02:21:33;13.10;99.90
33645;DHT22;19986;48.190;16.366;2023-05-18T02:24:00;13.10;99.90
33645;DHT22;19986;48.190;16.366;2023-05-18T02:26:27;13.10;99.90
33645;DHT22;19986;48.190;16.366;2023-05-18T02:28:53;13.10;99.90
33645;DHT22;19986;48.190;16.366;2023-05-18T02:31:20;13.10;99.90
33645;DHT22;19986;48.190;16.366;2023-05-18T02:33:47;13.00;99.90
33645;DHT22;19986;48.190;16.366;2023-05-18T02:36:13;13.00;99.90
33645;DHT22;19986;48.190;16.366;2023-05-18T02:38:41;13.00;99.90
33645;DHT22;19986;48.190;16.366;2023-05-18T02:41:11;13.10;99.90
33645;DHT22;19986;48.190;16.366;2023-05-18T02:43:37;13.10;99.90
33645;DHT22;19986;48.190;16.366;2023-05-18T02:46:03;13.10;99.90
33645;DHT22;19986;48.190;16.366;2023-05-18T02:48:30;13.00;99.90
33645;DHT22;19986;48.190;16.366;2023-05-18T02:50:56;13.00;99.90
33645;DHT22;19986;48.190;16.366;2023-05-18T02:53:24;13.00;99.90
33645;DHT22;19986;48.190;16.366;2023-05-18T02:55:54;13.00;99.90
33645;DHT22;19986;48.190;16.366;2023-05-18T02:58:23;13.00;99.90
33645;DHT22;19986;48.190;16.366;2023-05-18T03:00:52;13.10;99.90
33645;DHT22;19986;48.190;16.366;2023-05-18T03:03:20;13.10;99.90
33645;DHT22;19986;48.190;16.366;2023-05-18T03:05:52;13.10;99.90
33645;DHT22;19986;48.190;16.366;2023-05-18T03:08:21;13.20;99.90
33645;DHT22;19986;48.190;16.366;2023-05-18T03:10:48;13.10;99.90
33645;DHT22;19986;48.190;16.366;2023-05-18T03:13:14;13.10;99.90
33645;DHT22;19986;48.190;16.366;2023-05-18T03:15:40;13.10;99.90
33645;DHT22;19986;48.190;16.366;2023-05-18T03:18:06;13.00;99.90
33645;DHT22;19986;48.190;16.366;2023-05-18T03:20:32;13.10;99.90
33645;DHT22;19986;48.190;16.366;2023-05-18T03:23:00;13.10;99.90
33645;DHT22;19986;48.190;16.366;2023-05-18T03:25:25;13.10;99.90
33645;DHT22;19986;48.190;16.366;2023-05-18T03:27:51;13.10;99.90
33645;DHT22;19986;48.190;16.366;2023-05-18T03:30:18;13.10;99.90
33645;DHT22;19986;48.190;16.366;2023-05-18T03:32:46;13.10;99.90
33645;DHT22;19986;48.190;16.366;2023-05-18T03:35:12;13.10;99.90
33645;DHT22;19986;48.190;16.366;2023-05-18T03:37:38;13.10;99.90
33645;DHT22;19986;48.190;16.366;2023-05-18T03:40:12;13.20;99.90
33645;DHT22;19986;48.190;16.366;2023-05-18T03:42:39;13.20;99.90
33645;DHT22;19986;48.190;16.366;2023-05-18T03:45:07;13.20;99.90
33645;DHT22;19986;48.190;16.366;2023-05-18T03:47:33;13.30;99.90
33645;DHT22;19986;48.190;16.366;2023-05-18T03:49:59;13.30;99.90
33645;DHT22;19986;48.190;16.366;2023-05-18T03:52:24;13.30;99.90
33645;DHT22;19986;48.190;16.366;2023-05-18T03:54:50;13.20;99.90
33645;DHT22;19986;48.190;16.366;2023-05-18T03:57:16;13.20;99.90
33645;DHT22;19986;48.190;16.366;2023-05-18T03:59:46;13.20;99.90
33645;DHT22;19986;48.190;16.366;2023-05-18T04:02:12;13.20;99.90
33645;DHT22;19986;48.190;16.366;2023-05-18T04:04:38;13.20;99.90
33645;DHT22;19986;48.190;16.366;2023-05-18T04:07:11;13.20;99.90
33645;DHT22;19986;48.190;16.366;2023-05-18T04:09:37;13.20;99.90
33645;DHT22;19986;48.190;16.366;2023-05-18T04:12:04;13.20;99.90
33645;DHT22;19986;48.190;16.366;2023-05-18T04:14:30;13.10;99.90
33645;DHT22;19986;48.190;16.366;2023-05-18T04:17:00;13.20;99.90
33645;DHT22;19986;48.190;16.366;2023-05-18T04:19:35;13.20;99.90
33645;DHT22;19986;48.190;16.366;2023-05-18T04:22:02;13.20;99.90
33645;DHT22;19986;48.190;16.366;2023-05-18T04:24:31;13.30;99.90
33645;DHT22;19986;48.190;16.366;2023-05-18T04:26:59;13.30;99.90
33645;DHT22;19986;48.190;16.366;2023-05-18T04:29:29;13.30;99.90
33645;DHT22;19986;48.190;16.366;2023-05-18T04:31:55;13.40;99.90
33645;DHT22;19986;48.190;16.366;2023-05-18T04:34:32;13.50;99.90
33645;DHT22;19986;48.190;16.366;2023-05-18T04:37:00;13.50;99.90
33645;DHT22;19986;48.190;16.366;2023-05-18T04:39:31;13.50;99.90
33645;DHT22;19986;48.190;16.366;2023-05-18T04:41:57;13.50;99.90
33645;DHT22;19986;48.190;16.366;2023-05-18T04:44:24;13.50;99.90
33645;DHT22;19986;48.190;16.366;2023-05-18T04:46:52;13.40;99.90
33645;DHT22;19986;48.190;16.366;2023-05-18T04:49:19;13.30;99.90
33645;DHT22;19986;48.190;16.366;2023-05-18T04:51:52;13.30;99.90
33645;DHT22;19986;48.190;16.366;2023-05-18T04:54:22;13.40;99.90
33645;DHT22;19986;48.190;16.366;2023-05-18T04:56:49;13.40;99.90
33645;DHT22;19986;48.190;16.366;2023-05-18T04:59:15;13.50;99.90
33645;DHT22;19986;48.190;16.366;2023-05-18T05:01:41;13.50;99.90
33645;DHT22;19986;48.190;16.366;2023-05-18T05:04:07;13.40;99.90
33645;DHT22;19986;48.190;16.366;2023-05-18T05:06:33;13.40;99.90
33645;DHT22;19986;48.190;16.366;2023-05-18T05:08:59;13.50;99.90
33645;DHT22;19986;48.190;16.366;2023-05-18T05:11:25;13.50;99.90
33645;DHT22;19986;48.190;16.366;2023-05-18T05:13:51;13.50;99.90
33645;DHT22;19986;48.190;16.366;2023-05-18T05:16:17;13.50;99.90
33645;DHT22;19986;48.190;16.366;2023-05-18T05:18:43;13.60;99.90
33645;DHT22;19986;48.190;16.366;2023-05-18T05:21:09;13.70;99.90
33645;DHT22;19986;48.190;16.366;2023-05-18T05:23:35;13.70;99.90
33645;DHT22;19986;48.190;16.366;2023-05-18T05:26:01;13.80;99.90
33645;DHT22;19986;48.190;16.366;2023-05-18T05:28:28;13.80;99.90
33645;DHT22;19986;48.190;16.366;2023-05-18T05:30:54;13.80;99.90
33645;DHT22;19986;48.190;16.366;2023-05-18T05:33:19;13.80;99.90
33645;DHT22;19986;48.190;16.366;2023-05-18T05:35:45;13.80;99.90
33645;DHT22;19986;48.190;16.366;2023-05-18T05:38:11;13.70;99.90
33645;DHT22;19986;48.190;16.366;2023-05-18T05:40:37;13.70;99.90
33645;DHT22;19986;48.190;16.366;2023-05-18T05:43:06;13.60;99.90
33645;DHT22;19986;48.190;16.366;2023-05-18T05:45:32;13.60;99.90
33645;DHT22;19986;48.190;16.366;2023-05-18T05:47:58;13.60;99.90
33645;DHT22;19986;48.190;16.366;2023-05-18T05:50:23;13.70;99.90
33645;DHT22;19986;48.190;16.366;2023-05-18T05:52:49;13.70;99.90
33645;DHT22;19986;48.190;16.366;2023-05-18T05:55:15;13.70;99.90
33645;DHT22;19986;48.190;16.366;2023-05-18T05:57:41;13.60;99.90
33645;DHT22;19986;48.190;16.366;2023-05-18T06:00:09;13.70;99.90
33645;DHT22;19986;48.190;16.366;2023-05-18T06:02:36;13.70;99.90
33645;DHT22;19986;48.190;16.366;2023-05-18T06:05:02;13.70;99.90
33645;DHT22;19986;48.190;16.366;2023-05-18T06:07:28;13.60;99.90
33645;DHT22;19986;48.190;16.366;2023-05-18T06:09:55;13.60;99.90
33645;DHT22;19986;48.190;16.366;2023-05-18T06:12:21;13.60;99.90
33645;DHT22;19986;48.190;16.366;2023-05-18T06:14:46;13.50;99.90
33645;DHT22;19986;48.190;16.366;2023-05-18T06:17:12;13.50;99.90
33645;DHT22;19986;48.190;16.366;2023-05-18T06:19:38;13.50;99.90
33645;DHT22;19986;48.190;16.366;2023-05-18T06:22:04;13.50;99.90
33645;DHT22;19986;48.190;16.366;2023-05-18T06:24:30;13.60;99.90
33645;DHT22;19986;48.190;16.366;2023-05-18T06:26:55;13.50;99.90
33645;DHT22;19986;48.190;16.366;2023-05-18T06:29:21;13.50;99.90
33645;DHT22;19986;48.190;16.366;2023-05-18T06:31:47;13.50;99.90
33645;DHT22;19986;48.190;16.366;2023-05-18T06:34:13;13.50;99.90
33645;DHT22;19986;48.190;16.366;2023-05-18T06:36:39;13.60;99.90
33645;DHT22;19986;48.190;16.366;2023-05-18T06:39:04;13.60;99.90
33645;DHT22;19986;48.190;16.366;2023-05-18T06:41:32;13.60;99.90
33645;DHT22;19986;48.190;16.366;2023-05-18T06:43:59;13.70;99.90
33645;DHT22;19986;48.190;16.366;2023-05-18T06:46:26;13.70;99.90
33645;DHT22;19986;48.190;16.366;2023-05-18T06:48:52;13.80;99.90
33645;DHT22;19986;48.190;16.366;2023-05-18T06:51:18;13.80;99.90
33645;DHT22;19986;48.190;16.366;2023-05-18T06:53:44;13.70;99.90
33645;DHT22;19986;48.190;16.366;2023-05-18T06:56:11;13.70;99.90
33645;DHT22;19986;48.190;16.366;2023-05-18T06:58:38;13.60;99.90
33645;DHT22;19986;48.190;16.366;2023-05-18T07:01:04;13.60;99.90
33645;DHT22;19986;48.190;16.366;2023-05-18T07:03:30;13.70;99.90
33645;DHT22;19986;48.190;16.366;2023-05-18T07:05:57;13.70;99.90
33645;DHT22;19986;48.190;16.366;2023-05-18T07:08:25;13.70;99.90
33645;DHT22;19986;48.190;16.366;2023-05-18T07:10:51;13.70;99.90
33645;DHT22;19986;48.190;16.366;2023-05-18T07:13:18;13.70;99.90
33645;DHT22;19986;48.190;16.366;2023-05-18T07:15:45;13.70;99.90
33645;DHT22;19986;48.190;16.366;2023-05-18T07:18:11;13.70;99.90
33645;DHT22;19986;48.190;16.366;2023-05-18T07:20:37;13.70;99.90
33645;DHT22;19986;48.190;16.366;2023-05-18T07:23:03;13.70;99.90
33645;DHT22;19986;48.190;16.366;2023-05-18T07:25:30;13.80;99.90
33645;DHT22;19986;48.190;16.366;2023-05-18T07:27:56;13.80;99.90
33645;DHT22;19986;48.190;16.366;2023-05-18T07:30:22;13.80;99.90
33645;DHT22;19986;48.190;16.366;2023-05-18T07:32:48;13.90;99.90
33645;DHT22;19986;48.190;16.366;2023-05-18T07:35:15;13.80;99.90
33645;DHT22;19986;48.190;16.366;2023-05-18T07:37:44;13.90;99.90
33645;DHT22;19986;48.190;16.366;2023-05-18T07:40:10;13.90;99.90
33645;DHT22;19986;48.190;16.366;2023-05-18T07:42:41;13.90;99.90
33645;DHT22;19986;48.190;16.366;2023-05-18T07:45:10;13.80;99.90
33645;DHT22;19986;48.190;16.366;2023-05-18T07:47:36;13.80;99.90
33645;DHT22;19986;48.190;16.366;2023-05-18T07:50:06;14.00;99.90
33645;DHT22;19986;48.190;16.366;2023-05-18T07:52:32;14.00;99.90
33645;DHT22;19986;48.190;16.366;2023-05-18T07:54:58;14.10;99.90
33645;DHT22;19986;48.190;16.366;2023-05-18T07:57:24;14.00;99.90
33645;DHT22;19986;48.190;16.366;2023-05-18T07:59:50;14.00;99.90
33645;DHT22;19986;48.190;16.366;2023-05-18T08:02:16;14.20;99.90
33645;DHT22;19986;48.190;16.366;2023-05-18T08:04:47;14.20;99.90
33645;DHT22;19986;48.190;16.366;2023-05-18T08:07:15;14.20;99.90
33645;DHT22;19986;48.190;16.366;2023-05-18T08:09:42;14.20;99.90
33645;DHT22;19986;48.190;16.366;2023-05-18T08:12:09;14.20;99.90
33645;DHT22;19986;48.190;16.366;2023-05-18T08:14:41;14.30;99.90
33645;DHT22;19986;48.190;16.366;2023-05-18T08:17:07;14.10;99.90
33645;DHT22;19986;48.190;16.366;2023-05-18T08:19:32;14.20;99.90
33645;DHT22;19986;48.190;16.366;2023-05-18T08:21:58;14.20;99.90
33645;DHT22;19986;48.190;16.366;2023-05-18T08:24:24;14.20;99.90
33645;DHT22;19986;48.190;16.366;2023-05-18T08:26:50;14.20;99.90
33645;DHT22;19986;48.190;16.366;2023-05-18T08:29:17;14.40;99.90
33645;DHT22;19986;48.190;16.366;2023-05-18T08:31:43;14.40;99.90
33645;DHT22;19986;48.190;16.366;2023-05-18T08:34:08;14.30;99.90
33645;DHT22;19986;48.190;16.366;2023-05-18T08:36:35;14.20;99.90
33645;DHT22;19986;48.190;16.366;2023-05-18T08:39:01;14.20;99.90
33645;DHT22;19986;48.190;16.366;2023-05-18T08:41:42;14.10;99.90
33645;DHT22;19986;48.190;16.366;2023-05-18T08:44:21;14.20;99.90
33645;DHT22;19986;48.190;16.366;2023-05-18T08:46:49;14.20;99.90
33645;DHT22;19986;48.190;16.366;2023-05-18T08:49:20;14.20;99.90
33645;DHT22;19986;48.190;16.366;2023-05-18T08:51:54;14.20;99.90
33645;DHT22;19986;48.190;16.366;2023-05-18T08:54:23;14.30;99.90
33645;DHT22;19986;48.190;16.366;2023-05-18T08:56:51;14.50;99.90
33645;DHT22;19986;48.190;16.366;2023-05-18T08:59:24;14.60;99.90
33645;DHT22;19986;48.190;16.366;2023-05-18T09:01:50;14.60;99.90
33645;DHT22;19986;48.190;16.366;2023-05-18T09:04:17;14.40;99.90
33645;DHT22;19986;48.190;16.366;2023-05-18T09:06:45;14.40;99.90
33645;DHT22;19986;48.190;16.366;2023-05-18T09:09:11;14.40;99.90
33645;DHT22;19986;48.190;16.366;2023-05-18T09:11:38;14.40;99.90
33645;DHT22;19986;48.190;16.366;2023-05-18T09:14:04;14.50;99.90
33645;DHT22;19986;48.190;16.366;2023-05-18T09:16:31;14.50;99.90
33645;DHT22;19986;48.190;16.366;2023-05-18T09:18:58;14.50;99.90
33645;DHT22;19986;48.190;16.366;2023-05-18T09:21:24;14.50;99.90
33645;DHT22;19986;48.190;16.366;2023-05-18T09:23:51;14.60;99.90
33645;DHT22;19986;48.190;16.366;2023-05-18T09:26:18;14.60;99.90
33645;DHT22;19986;48.190;16.366;2023-05-18T09:28:44;14.60;99.90
33645;DHT22;19986;48.190;16.366;2023-05-18T09:31:19;14.60;99.90
33645;DHT22;19986;48.190;16.366;2023-05-18T09:33:46;14.70;99.90
33645;DHT22;19986;48.190;16.366;2023-05-18T09:36:12;14.70;99.90
33645;DHT22;19986;48.190;16.366;2023-05-18T09:38:44;14.70;99.90
33645;DHT22;19986;48.190;16.366;2023-05-18T09:41:19;14.70;99.90
33645;DHT22;19986;48.190;16.366;2023-05-18T09:43:49;14.60;99.90
33645;DHT22;19986;48.190;16.366;2023-05-18T09:46:16;14.60;99.90
33645;DHT22;19986;48.190;16.366;2023-05-18T09:48:45;14.70;99.90
33645;DHT22;19986;48.190;16.366;2023-05-18T09:51:12;14.80;99.90
33645;DHT22;19986;48.190;16.366;2023-05-18T09:53:55;14.80;99.90
33645;DHT22;19986;48.190;16.366;2023-05-18T09:56:22;14.80;99.90
33645;DHT22;19986;48.190;16.366;2023-05-18T09:58:48;14.70;99.90
33645;DHT22;19986;48.190;16.366;2023-05-18T10:01:14;14.70;99.90
33645;DHT22;19986;48.190;16.366;2023-05-18T10:03:40;14.80;99.90
33645;DHT22;19986;48.190;16.366;2023-05-18T10:06:10;14.80;99.90
33645;DHT22;19986;48.190;16.366;2023-05-18T10:08:38;14.90;99.90
33645;DHT22;19986;48.190;16.366;2023-05-18T10:11:04;14.90;99.90
33645;DHT22;19986;48.190;16.366;2023-05-18T10:13:31;14.90;99.90
33645;DHT22;19986;48.190;16.366;2023-05-18T10:16:05;14.90;99.90
33645;DHT22;19986;48.190;16.366;2023-05-18T10:18:34;15.00;99.90
33645;DHT22;19986;48.190;16.366;2023-05-18T10:21:02;14.80;99.90
33645;DHT22;19986;48.190;16.366;2023-05-18T10:23:35;14.80;99.90
33645;DHT22;19986;48.190;16.366;2023-05-18T10:26:06;14.80;99.90
33645;DHT22;19986;48.190;16.366;2023-05-18T10:28:37;14.90;99.90
33645;DHT22;19986;48.190;16.366;2023-05-18T10:31:06;15.00;99.90
33645;DHT22;19986;48.190;16.366;2023-05-18T10:33:35;15.10;99.90
33645;DHT22;19986;48.190;16.366;2023-05-18T10:36:03;15.00;99.90
33645;DHT22;19986;48.190;16.366;2023-05-18T10:38:30;14.90;99.90
33645;DHT22;19986;48.190;16.366;2023-05-18T10:40:58;14.90;99.90
33645;DHT22;19986;48.190;16.366;2023-05-18T10:43:25;15.00;99.90
33645;DHT22;19986;48.190;16.366;2023-05-18T10:45:53;15.00;99.90
33645;DHT22;19986;48.190;16.366;2023-05-18T10:48:21;15.00;99.90
33645;DHT22;19986;48.190;16.366;2023-05-18T10:50:48;15.00;99.90
33645;DHT22;19986;48.190;16.366;2023-05-18T10:53:24;14.90;99.90
33645;DHT22;19986;48.190;16.366;2023-05-18T10:55:52;15.00;99.90
33645;DHT22;19986;48.190;16.366;2023-05-18T10:58:23;15.10;99.90
33645;DHT22;19986;48.190;16.366;2023-05-18T11:01:00;15.00;99.90
33645;DHT22;19986;48.190;16.366;2023-05-18T11:03:27;15.00;99.90
33645;DHT22;19986;48.190;16.366;2023-05-18T11:06:08;15.00;99.90
33645;DHT22;19986;48.190;16.366;2023-05-18T11:11:11;15.00;99.90
33645;DHT22;19986;48.190;16.366;2023-05-18T11:13:51;15.10;99.90
33645;DHT22;19986;48.190;16.366;2023-05-18T11:16:18;15.00;99.90
33645;DHT22;19986;48.190;16.366;2023-05-18T11:18:48;15.20;99.90
33645;DHT22;19986;48.190;16.366;2023-05-18T11:24:12;15.20;99.90
33645;DHT22;19986;48.190;16.366;2023-05-18T11:26:39;15.30;99.90
33645;DHT22;19986;48.190;16.366;2023-05-18T11:29:34;15.50;99.90
33645;DHT22;19986;48.190;16.366;2023-05-18T11:32:01;15.60;99.90
33645;DHT22;19986;48.190;16.366;2023-05-18T11:34:44;15.50;99.90
33645;DHT22;19986;48.190;16.366;2023-05-18T11:37:15;15.60;99.90
33645;DHT22;19986;48.190;16.366;2023-05-18T11:39:52;15.60;99.90
33645;DHT22;19986;48.190;16.366;2023-05-18T11:42:19;15.60;99.90
33645;DHT22;19986;48.190;16.366;2023-05-18T11:44:52;15.60;99.90
33645;DHT22;19986;48.190;16.366;2023-05-18T11:47:28;15.70;99.90
33645;DHT22;19986;48.190;16.366;2023-05-18T11:49:56;15.80;99.90
33645;DHT22;19986;48.190;16.366;2023-05-18T11:52:23;15.80;99.90
33645;DHT22;19986;48.190;16.366;2023-05-18T11:54:51;15.80;99.90
33645;DHT22;19986;48.190;16.366;2023-05-18T12:00:00;15.80;99.90
33645;DHT22;19986;48.190;16.366;2023-05-18T12:02:30;15.60;99.90
33645;DHT22;19986;48.190;16.366;2023-05-18T12:04:58;15.60;99.90
33645;DHT22;19986;48.190;16.366;2023-05-18T12:07:28;15.60;99.90
33645;DHT22;19986;48.190;16.366;2023-05-18T12:12:26;15.70;99.90
33645;DHT22;19986;48.190;16.366;2023-05-18T12:14:57;15.80;99.90
33645;DHT22;19986;48.190;16.366;2023-05-18T12:17:45;15.70;99.90
33645;DHT22;19986;48.190;16.366;2023-05-18T12:20:11;15.60;99.90
33645;DHT22;19986;48.190;16.366;2023-05-18T12:22:42;15.60;99.90
33645;DHT22;19986;48.190;16.366;2023-05-18T12:25:10;15.60;99.90
33645;DHT22;19986;48.190;16.366;2023-05-18T12:27:38;15.60;99.90
33645;DHT22;19986;48.190;16.366;2023-05-18T12:30:16;15.60;99.90
33645;DHT22;19986;48.190;16.366;2023-05-18T12:32:47;15.70;99.90
33645;DHT22;19986;48.190;16.366;2023-05-18T12:35:14;15.80;99.90
33645;DHT22;19986;48.190;16.366;2023-05-18T12:37:44;15.80;99.90
33645;DHT22;19986;48.190;16.366;2023-05-18T12:40:17;15.90;99.90
33645;DHT22;19986;48.190;16.366;2023-05-18T12:42:57;15.90;99.90
33645;DHT22;19986;48.190;16.366;2023-05-18T12:45:30;16.00;99.90
33645;DHT22;19986;48.190;16.366;2023-05-18T12:48:12;16.00;99.90
33645;DHT22;19986;48.190;16.366;2023-05-18T12:50:47;16.10;99.90
33645;DHT22;19986;48.190;16.366;2023-05-18T12:53:13;16.00;99.90
33645;DHT22;19986;48.190;16.366;2023-05-18T12:55:40;15.90;99.90
33645;DHT22;19986;48.190;16.366;2023-05-18T12:58:12;16.00;99.90
33645;DHT22;19986;48.190;16.366;2023-05-18T13:00:46;16.20;99.90
33645;DHT22;19986;48.190;16.366;2023-05-18T13:03:16;16.20;99.90
33645;DHT22;19986;48.190;16.366;2023-05-18T13:05:45;16.00;99.90
33645;DHT22;19986;48.190;16.366;2023-05-18T13:08:15;16.00;99.90
33645;DHT22;19986;48.190;16.366;2023-05-18T13:10:46;16.10;99.90
33645;DHT22;19986;48.190;16.366;2023-05-18T13:13:15;16.10;99.90
33645;DHT22;19986;48.190;16.366;2023-05-18T13:15:42;16.20;99.90
33645;DHT22;19986;48.190;16.366;2023-05-18T13:18:09;16.20;99.90
33645;DHT22;19986;48.190;16.366;2023-05-18T13:20:39;16.30;99.90
33645;DHT22;19986;48.190;16.366;2023-05-18T13:23:13;16.40;99.90
33645;DHT22;19986;48.190;16.366;2023-05-18T13:25:40;16.40;99.90
33645;DHT22;19986;48.190;16.366;2023-05-18T13:28:07;16.50;99.90
33645;DHT22;19986;48.190;16.366;2023-05-18T13:30:35;16.50;99.90
33645;DHT22;19986;48.190;16.366;2023-05-18T13:33:02;16.40;99.90
33645;DHT22;19986;48.190;16.366;2023-05-18T13:35:28;16.40;99.90
33645;DHT22;19986;48.190;16.366;2023-05-18T13:37:54;16.40;99.90
33645;DHT22;19986;48.190;16.366;2023-05-18T13:40:21;16.30;99.90
33645;DHT22;19986;48.190;16.366;2023-05-18T13:42:48;16.40;99.90
33645;DHT22;19986;48.190;16.366;2023-05-18T13:45:14;16.40;99.90
33645;DHT22;19986;48.190;16.366;2023-05-18T13:47:40;16.40;99.90
33645;DHT22;19986;48.190;16.366;2023-05-18T13:50:07;16.40;99.90
33645;DHT22;19986;48.190;16.366;2023-05-18T13:52:34;16.30;99.90
33645;DHT22;19986;48.190;16.366;2023-05-18T13:55:04;16.30;99.90
33645;DHT22;19986;48.190;16.366;2023-05-18T13:57:30;16.30;99.90
33645;DHT22;19986;48.190;16.366;2023-05-18T13:59:57;16.30;99.90
33645;DHT22;19986;48.190;16.366;2023-05-18T14:02:24;16.40;99.90
33645;DHT22;19986;48.190;16.366;2023-05-18T14:04:50;16.30;99.90
33645;DHT22;19986;48.190;16.366;2023-05-18T14:07:17;16.30;99.90
33645;DHT22;19986;48.190;16.366;2023-05-18T14:09:43;16.30;99.90
33645;DHT22;19986;48.190;16.366;2023-05-18T14:12:09;16.20;99.90
33645;DHT22;19986;48.190;16.366;2023-05-18T14:14:36;16.10;99.90
33645;DHT22;19986;48.190;16.366;2023-05-18T14:17:02;16.20;99.90
33645;DHT22;19986;48.190;16.366;2023-05-18T14:19:28;16.30;99.90
33645;DHT22;19986;48.190;16.366;2023-05-18T14:21:54;16.40;99.90
33645;DHT22;19986;48.190;16.366;2023-05-18T14:24:19;16.40;99.90
33645;DHT22;19986;48.190;16.366;2023-05-18T14:26:45;16.40;99.90
33645;DHT22;19986;48.190;16.366;2023-05-18T14:29:11;16.40;99.90
33645;DHT22;19986;48.190;16.366;2023-05-18T14:31:37;16.60;99.90
33645;DHT22;19986;48.190;16.366;2023-05-18T14:34:03;16.70;99.90
33645;DHT22;19986;48.190;16.366;2023-05-18T14:36:28;16.70;99.90
33645;DHT22;19986;48.190;16.366;2023-05-18T14:38:55;16.80;99.90
33645;DHT22;19986;48.190;16.366;2023-05-18T14:41:21;16.80;99.90
33645;DHT22;19986;48.190;16.366;2023-05-18T14:43:47;16.80;99.90
33645;DHT22;19986;48.190;16.366;2023-05-18T14:46:15;16.70;99.90
33645;DHT22;19986;48.190;16.366;2023-05-18T14:48:41;16.70;99.90
33645;DHT22;19986;48.190;16.366;2023-05-18T14:51:07;16.60;99.90
33645;DHT22;19986;48.190;16.366;2023-05-18T14:53:33;16.50;99.90
33645;DHT22;19986;48.190;16.366;2023-05-18T14:55:59;16.50;99.90
33645;DHT22;19986;48.190;16.366;2023-05-18T14:58:28;16.50;99.90
33645;DHT22;19986;48.190;16.366;2023-05-18T15:00:54;16.50;99.90
33645;DHT22;19986;48.190;16.366;2023-05-18T15:03:20;16.50;99.90
33645;DHT22;19986;48.190;16.366;2023-05-18T15:05:46;16.50;99.90
33645;DHT22;19986;48.190;16.366;2023-05-18T15:08:12;16.40;99.90
33645;DHT22;19986;48.190;16.366;2023-05-18T15:10:38;16.50;99.90
33645;DHT22;19986;48.190;16.366;2023-05-18T15:13:04;16.40;99.90
33645;DHT22;19986;48.190;16.366;2023-05-18T15:15:30;16.40;99.90
33645;DHT22;19986;48.190;16.366;2023-05-18T15:17:56;16.50;99.90
33645;DHT22;19986;48.190;16.366;2023-05-18T15:20:22;16.40;99.90
33645;DHT22;19986;48.190;16.366;2023-05-18T15:22:51;16.40;99.90
33645;DHT22;19986;48.190;16.366;2023-05-18T15:25:17;16.40;99.90
33645;DHT22;19986;48.190;16.366;2023-05-18T15:27:43;16.40;99.90
33645;DHT22;19986;48.190;16.366;2023-05-18T15:30:09;16.30;99.90
33645;DHT22;19986;48.190;16.366;2023-05-18T15:32:40;16.20;99.90
33645;DHT22;19986;48.190;16.366;2023-05-18T15:35:07;16.30;99.90
33645;DHT22;19986;48.190;16.366;2023-05-18T15:37:33;16.30;99.90
33645;DHT22;19986;48.190;16.366;2023-05-18T15:39:59;16.20;99.90
33645;DHT22;19986;48.190;16.366;2023-05-18T15:42:25;16.20;99.90
33645;DHT22;19986;48.190;16.366;2023-05-18T15:44:51;16.20;99.90